createdAt,value
2019-03-27T00:02:14.329Z,102973.67
2019-03-27T00:04:58.547Z,102994.84
2019-03-27T00:07:43.070Z,102972.80
2019-03-27T00:10:27.168Z,102970.80
2019-03-27T00:13:11.727Z,102973.14
2019-03-27T00:15:55.502Z,102960.20
2019-03-27T00:18:40.591Z,102970.80
2019-03-27T00:21:24.941Z,102961.94
2019-03-27T00:24:09.491Z,102987.30
2019-03-27T00:26:53.708Z,102984.70
2019-03-27T00:29:38.124Z,102971.52
2019-03-27T00:32:22.339Z,102968.09
2019-03-27T00:35:06.977Z,102970.69
2019-03-27T00:37:51.352Z,102963.67
2019-03-27T00:40:36.041Z,102948.06
2019-03-27T00:43:19.885Z,102979.89
2019-03-27T00:46:04.520Z,102976.48
2019-03-27T00:48:48.475Z,102967.95
2019-03-27T00:51:32.751Z,102967.94
2019-03-27T00:54:17.215Z,102936.00
2019-03-27T00:57:01.527Z,102946.72
2019-03-27T00:59:45.285Z,102974.87
2019-03-27T01:02:30.107Z,102948.02
2019-03-27T01:05:14.111Z,102972.03
2019-03-27T01:07:58.712Z,102950.62
2019-03-27T01:10:42.993Z,102969.34
2019-03-27T01:13:27.751Z,102969.50
2019-03-27T01:16:11.687Z,102974.21
2019-03-27T01:18:56.458Z,102951.86
2019-03-27T01:21:40.392Z,102942.65
2019-03-27T01:24:25.095Z,102934.31
2019-03-27T01:27:08.995Z,102929.84
2019-03-27T01:29:53.909Z,102937.74
2019-03-27T01:32:38.415Z,102937.45
2019-03-27T01:35:22.932Z,102947.09
2019-03-27T01:38:07.128Z,102917.23
2019-03-27T01:40:51.092Z,102945.03
2019-03-27T01:43:34.846Z,102949.70
2019-03-27T01:46:18.891Z,102941.41
2019-03-27T01:49:03.218Z,102920.41
2019-03-27T01:51:47.284Z,102950.78
2019-03-27T01:54:31.622Z,102924.42
2019-03-27T01:57:15.276Z,102925.77
2019-03-27T01:59:59.580Z,102933.45
2019-03-27T02:02:43.468Z,102928.73
2019-03-27T02:05:29.626Z,102961.66
2019-03-27T02:08:13.709Z,102943.97
2019-03-27T02:10:57.714Z,102927.45
2019-03-27T02:13:41.975Z,102921.94
2019-03-27T02:16:26.662Z,102913.01
2019-03-27T02:19:11.004Z,102918.47
2019-03-27T02:21:55.259Z,102925.83
2019-03-27T02:24:40.229Z,102946.17
2019-03-27T02:27:24.618Z,102914.45
2019-03-27T02:30:09.230Z,102920.89
2019-03-27T02:32:53.413Z,102947.47
2019-03-27T02:35:38.059Z,102958.13
2019-03-27T02:38:21.906Z,102935.34
2019-03-27T02:41:05.805Z,102934.05
2019-03-27T02:43:50.375Z,102952.40
2019-03-27T02:46:34.463Z,102935.34
2019-03-27T02:49:18.591Z,102928.36
2019-03-27T02:52:03.427Z,102926.05
2019-03-27T02:54:48.387Z,102926.58
2019-03-27T02:57:32.270Z,102953.03
2019-03-27T03:00:16.736Z,102928.70
2019-03-27T03:03:01.302Z,102927.41
2019-03-27T03:05:46.551Z,102928.97
2019-03-27T03:08:30.681Z,102936.06
2019-03-27T03:11:16.130Z,102954.08
2019-03-27T03:14:00.171Z,102927.12
2019-03-27T03:16:44.375Z,102942.88
2019-03-27T03:19:28.609Z,102940.53
2019-03-27T03:22:13.100Z,102932.58
2019-03-27T03:24:56.831Z,102938.33
2019-03-27T03:27:40.750Z,102933.34
2019-03-27T03:30:24.887Z,102916.03
2019-03-27T03:33:09.024Z,102942.38
2019-03-27T03:35:42.729Z,102951.38
2019-03-27T03:38:26.943Z,102929.61
2019-03-27T03:41:11.619Z,102925.33
2019-03-27T03:43:55.931Z,102923.40
2019-03-27T03:46:40.512Z,102950.94
2019-03-27T03:49:24.783Z,102956.73
2019-03-27T03:52:09.400Z,102962.31
2019-03-27T03:54:53.587Z,102937.20
2019-03-27T03:57:37.777Z,102965.49
2019-03-27T04:00:22.773Z,102931.19
2019-03-27T04:03:06.544Z,102938.11
2019-03-27T04:05:50.746Z,102962.09
2019-03-27T04:08:34.584Z,102948.13
2019-03-27T04:11:19.234Z,102950.08
2019-03-27T04:14:03.897Z,102938.70
2019-03-27T04:16:47.679Z,102967.62
2019-03-27T04:19:31.665Z,102964.15
2019-03-27T04:22:15.884Z,102964.95
2019-03-27T04:25:00.610Z,102967.94
2019-03-27T04:27:44.619Z,102944.01
2019-03-27T04:30:29.204Z,102946.33
2019-03-27T04:33:13.740Z,102972.33
2019-03-27T04:35:57.671Z,102947.90
2019-03-27T04:38:41.773Z,102979.29
2019-03-27T04:41:25.557Z,102959.58
2019-03-27T04:44:09.566Z,102982.98
2019-03-27T04:46:53.879Z,102960.56
2019-03-27T04:49:37.965Z,102965.39
2019-03-27T04:52:22.633Z,102966.61
2019-03-27T04:55:07.247Z,102962.19
2019-03-27T04:57:52.194Z,102988.23
2019-03-27T05:00:36.005Z,102984.70
2019-03-27T05:03:19.981Z,102982.32
2019-03-27T05:06:03.956Z,102955.52
2019-03-27T05:08:48.016Z,102965.16
2019-03-27T05:11:32.557Z,102991.26
2019-03-27T05:14:17.063Z,102997.20
2019-03-27T05:17:01.037Z,102981.77
2019-03-27T05:19:45.337Z,102970.94
2019-03-27T05:22:29.767Z,102973.23
2019-03-27T05:25:13.673Z,102989.27
2019-03-27T05:27:59.297Z,102995.05
2019-03-27T05:30:43.139Z,102968.84
2019-03-27T05:33:27.185Z,102983.84
2019-03-27T05:36:11.147Z,102978.69
2019-03-27T05:38:55.634Z,102976.69
2019-03-27T05:41:40.351Z,102992.56
2019-03-27T05:44:24.047Z,102984.59
2019-03-27T05:47:08.262Z,102975.30
2019-03-27T05:49:52.262Z,103002.69
2019-03-27T05:52:37.309Z,102984.48
2019-03-27T05:55:21.915Z,103014.81
2019-03-27T05:58:06.288Z,103010.00
2019-03-27T06:00:50.191Z,103002.19
2019-03-27T06:03:34.337Z,102994.72
2019-03-27T06:06:18.815Z,102993.92
2019-03-27T06:09:03.006Z,102997.11
2019-03-27T06:11:47.243Z,102998.09
2019-03-27T06:14:31.248Z,102989.91
2019-03-27T06:17:16.268Z,103029.34
2019-03-27T06:20:00.058Z,102999.72
2019-03-27T06:25:45.123Z,103023.91
2019-03-27T06:28:30.133Z,103025.86
2019-03-27T06:31:14.598Z,103006.75
2019-03-27T06:33:58.410Z,102991.22
2019-03-27T06:36:43.020Z,102995.81
2019-03-27T06:39:27.369Z,102995.96
2019-03-27T06:42:11.543Z,102988.72
2019-03-27T06:44:55.862Z,103000.28
2019-03-27T06:47:39.753Z,102998.00
2019-03-27T06:50:23.498Z,102993.99
2019-03-27T06:53:07.582Z,103001.12
2019-03-27T06:55:51.689Z,103018.32
2019-03-27T06:58:36.673Z,102994.28
2019-03-27T07:01:20.987Z,103010.10
2019-03-27T07:04:10.787Z,102987.02
2019-03-27T07:06:51.474Z,102990.14
2019-03-27T07:09:36.150Z,103021.22
2019-03-27T07:12:21.588Z,102999.18
2019-03-27T07:15:06.141Z,103003.06
2019-03-27T07:17:50.468Z,103029.35
2019-03-27T07:20:35.016Z,103000.48
2019-03-27T07:23:20.390Z,103012.24
2019-03-27T07:26:05.108Z,103032.02
2019-03-27T07:28:49.283Z,103019.28
2019-03-27T07:31:33.972Z,103044.06
2019-03-27T07:34:18.572Z,103020.88
2019-03-27T07:37:02.519Z,103047.70
2019-03-27T07:39:46.455Z,103032.55
2019-03-27T07:42:31.329Z,103023.16
2019-03-27T07:45:15.388Z,103019.53
2019-03-27T07:47:59.617Z,103047.88
2019-03-27T07:50:44.391Z,103016.89
2019-03-27T07:53:28.333Z,103048.11
2019-03-27T07:56:12.586Z,103029.33
2019-03-27T07:58:59.686Z,103022.35
2019-03-27T08:01:41.870Z,103038.61
2019-03-27T08:04:26.177Z,103035.26
2019-03-27T08:07:10.250Z,103015.77
2019-03-27T08:09:54.119Z,103021.43
2019-03-27T08:12:38.611Z,103038.19
2019-03-27T08:15:22.653Z,103006.25
2019-03-27T08:18:07.067Z,103012.24
2019-03-27T08:20:51.463Z,103027.59
2019-03-27T08:23:36.056Z,103021.94
2019-03-27T08:26:19.927Z,103040.08
2019-03-27T08:29:03.693Z,103019.75
2019-03-27T08:31:47.732Z,103029.69
2019-03-27T08:34:32.353Z,103023.73
2019-03-27T08:37:16.678Z,103052.52
2019-03-27T08:40:01.239Z,103022.60
2019-03-27T08:42:45.431Z,103047.05
2019-03-27T08:45:29.627Z,103025.19
2019-03-27T08:48:14.342Z,103038.93
2019-03-27T08:50:58.860Z,103040.11
2019-03-27T08:53:42.689Z,103018.72
2019-03-27T08:56:26.899Z,103041.97
2019-03-27T08:59:11.141Z,103028.55
2019-03-27T09:01:55.904Z,103033.59
2019-03-27T09:04:40.266Z,103043.70
2019-03-27T09:07:24.812Z,103047.43
2019-03-27T09:10:09.549Z,103054.28
2019-03-27T09:12:53.623Z,103038.50
2019-03-27T09:15:38.249Z,103041.88
2019-03-27T09:18:23.159Z,103035.64
2019-03-27T09:21:07.286Z,103033.32
2019-03-27T09:23:51.570Z,103058.28
2019-03-27T09:26:35.987Z,103029.09
2019-03-27T09:29:20.095Z,103049.91
2019-03-27T09:31:54.143Z,103053.83
2019-03-27T09:34:39.059Z,103057.84
2019-03-27T09:37:23.399Z,103044.86
2019-03-27T09:40:07.326Z,103047.95
2019-03-27T09:42:51.615Z,103048.11
2019-03-27T09:45:35.871Z,103047.46
2019-03-27T09:48:19.693Z,103066.80
2019-03-27T09:51:03.783Z,103058.95
2019-03-27T09:53:48.048Z,103040.34
2019-03-27T09:56:31.977Z,103047.41
2019-03-27T09:59:16.237Z,103057.70
2019-03-27T10:02:00.743Z,103048.40
2019-03-27T10:04:45.031Z,103077.08
2019-03-27T10:07:29.455Z,103053.86
2019-03-27T10:10:14.323Z,103058.38
2019-03-27T10:12:58.513Z,103056.75
2019-03-27T10:15:43.359Z,103076.42
2019-03-27T10:18:27.399Z,103052.91
2019-03-27T10:21:11.500Z,103048.14
2019-03-27T10:23:56.269Z,103069.22
2019-03-27T10:26:42.599Z,103044.36
2019-03-27T10:29:26.238Z,103071.23
2019-03-27T10:32:10.545Z,103061.33
2019-03-27T10:34:54.995Z,103048.18
2019-03-27T10:37:39.226Z,103047.52
2019-03-27T10:40:23.937Z,103071.11
2019-03-27T10:43:08.349Z,103052.90
2019-03-27T10:45:52.387Z,103052.41
2019-03-27T10:48:37.069Z,103050.16
2019-03-27T10:51:22.079Z,103061.23
2019-03-27T10:54:06.628Z,103061.41
2019-03-27T10:56:50.486Z,103071.05
2019-03-27T10:59:35.338Z,103062.62
2019-03-27T11:02:20.090Z,103060.91
2019-03-27T11:05:08.855Z,103070.02
2019-03-27T11:07:53.512Z,103087.55
2019-03-27T11:10:37.817Z,103065.35
2019-03-27T11:13:22.001Z,103092.33
2019-03-27T11:16:06.147Z,103075.11
2019-03-27T11:18:51.039Z,103077.17
2019-03-27T11:21:25.489Z,103083.25
2019-03-27T11:24:10.324Z,103094.38
2019-03-27T11:26:55.011Z,103072.44
2019-03-27T11:29:39.401Z,103097.87
2019-03-27T11:32:23.726Z,103092.32
2019-03-27T11:34:57.353Z,103092.38
2019-03-27T11:37:42.339Z,103063.67
2019-03-27T11:40:26.745Z,103082.52
2019-03-27T11:43:13.120Z,103094.67
2019-03-27T11:45:57.276Z,103070.73
2019-03-27T11:48:41.554Z,103070.16
2019-03-27T11:51:26.442Z,103064.04
2019-03-27T11:54:11.123Z,103063.45
2019-03-27T11:56:55.349Z,103069.89
2019-03-27T11:59:52.937Z,103072.05
2019-03-27T12:02:26.305Z,103078.41
2019-03-27T12:05:10.196Z,103085.53
2019-03-27T12:07:43.346Z,103084.63
2019-03-27T12:10:28.185Z,103087.57
2019-03-27T12:13:12.360Z,103068.36
2019-03-27T12:15:57.127Z,103093.30
2019-03-27T12:18:40.901Z,103073.44
2019-03-27T12:21:24.996Z,103074.52
2019-03-27T12:24:09.404Z,103094.20
2019-03-27T12:26:57.969Z,103095.61
2019-03-27T12:29:42.065Z,103094.28
2019-03-27T12:32:26.112Z,103075.07
2019-03-27T12:35:10.243Z,103100.25
2019-03-27T12:37:58.126Z,103081.56
2019-03-27T12:40:42.302Z,103099.33
2019-03-27T12:43:26.159Z,103076.81
2019-03-27T12:46:10.436Z,103078.80
2019-03-27T12:48:55.080Z,103099.88
2019-03-27T12:51:38.889Z,103072.45
2019-03-27T12:54:12.207Z,103100.97
2019-03-27T12:56:58.752Z,103073.47
2019-03-27T12:59:42.838Z,103100.67
2019-03-27T13:02:27.426Z,103101.20
2019-03-27T13:05:17.273Z,103071.83
2019-03-27T13:08:01.280Z,103081.64
2019-03-27T13:10:45.692Z,103075.81
2019-03-27T13:13:30.309Z,103097.02
2019-03-27T13:16:15.333Z,103080.87
2019-03-27T13:18:59.745Z,103078.14
2019-03-27T13:21:43.744Z,103069.07
2019-03-27T13:24:28.060Z,103073.01
2019-03-27T13:27:12.704Z,103101.35
2019-03-27T13:29:45.805Z,103097.55
2019-03-27T13:32:30.639Z,103100.78
2019-03-27T13:35:16.839Z,103081.11
2019-03-27T13:38:00.741Z,103105.78
2019-03-27T13:40:45.272Z,103114.06
2019-03-27T13:43:33.868Z,103084.98
2019-03-27T13:46:07.218Z,103106.64
2019-03-27T13:48:51.978Z,103090.05
2019-03-27T13:51:40.827Z,103086.53
2019-03-27T13:54:23.159Z,103095.77
2019-03-27T13:57:09.292Z,103087.16
2019-03-27T13:59:53.599Z,103094.53
2019-03-27T14:02:37.755Z,103122.05
2019-03-27T14:05:22.756Z,103112.20
2019-03-27T14:08:07.365Z,103107.06
2019-03-27T14:10:40.527Z,103107.83
2019-03-27T14:13:24.994Z,103076.31
2019-03-27T14:16:08.823Z,103092.69
2019-03-27T14:18:52.862Z,103095.38
2019-03-27T14:21:37.075Z,103111.08
2019-03-27T14:24:21.769Z,103098.83
2019-03-27T14:27:07.342Z,103117.41
2019-03-27T14:29:52.051Z,103097.20
2019-03-27T14:32:36.090Z,103120.29
2019-03-27T14:35:20.235Z,103117.69
2019-03-27T14:38:05.003Z,103120.55
2019-03-27T14:40:49.901Z,103119.97
2019-03-27T14:43:34.330Z,103100.90
2019-03-27T14:46:18.788Z,103098.26
2019-03-27T14:49:02.898Z,103107.79
2019-03-27T14:51:47.192Z,103120.74
2019-03-27T14:54:33.170Z,103101.02
2019-03-27T14:57:17.906Z,103124.99
2019-03-27T15:00:02.595Z,103103.59
2019-03-27T15:02:47.366Z,103127.68
2019-03-27T15:05:32.501Z,103105.06
2019-03-27T15:08:17.252Z,103115.95
2019-03-27T15:11:01.743Z,103117.09
2019-03-27T15:13:45.673Z,103111.02
2019-03-27T15:16:29.537Z,103109.27
2019-03-27T15:19:13.791Z,103120.27
2019-03-27T15:21:58.232Z,103129.32
2019-03-27T15:24:44.412Z,103128.46
2019-03-27T15:27:29.805Z,103128.55
2019-03-27T15:30:18.367Z,103127.89
2019-03-27T15:33:02.541Z,103136.17
2019-03-27T15:35:52.585Z,103135.35
2019-03-27T15:38:25.630Z,103137.35
2019-03-27T15:41:10.174Z,103132.34
2019-03-27T15:43:58.889Z,103105.64
2019-03-27T15:46:43.863Z,103113.67
2019-03-27T15:49:27.935Z,103103.69
2019-03-27T15:52:12.476Z,103095.41
2019-03-27T15:54:56.514Z,103109.88
2019-03-27T15:57:41.494Z,103101.11
2019-03-27T16:00:26.765Z,103126.75
2019-03-27T16:03:11.234Z,103104.17
2019-03-27T16:05:55.730Z,103103.56
2019-03-27T16:08:39.718Z,103107.80
2019-03-27T16:11:24.094Z,103130.59
2019-03-27T16:14:08.993Z,103126.72
2019-03-27T16:17:12.037Z,103105.61
2019-03-27T16:19:40.051Z,103108.37
2019-03-27T16:22:24.507Z,103102.30
2019-03-27T16:25:09.490Z,103109.97
2019-03-27T16:27:54.428Z,103131.28
2019-03-27T16:30:38.945Z,103110.00
2019-03-27T16:33:23.263Z,103115.09
2019-03-27T16:36:09.509Z,103141.23
2019-03-27T16:38:54.350Z,103142.30
2019-03-27T16:41:43.307Z,103143.84
2019-03-27T16:44:16.512Z,103145.72
2019-03-27T16:47:01.948Z,103139.68
2019-03-27T16:49:47.812Z,103139.67
2019-03-27T16:52:31.967Z,103112.45
2019-03-27T16:55:05.723Z,103141.92
2019-03-27T16:58:02.941Z,103115.38
2019-03-27T17:00:47.175Z,103115.14
2019-03-27T17:03:31.627Z,103111.52
2019-03-27T17:06:15.809Z,103111.72
2019-03-27T17:08:59.943Z,103119.80
2019-03-27T17:11:44.014Z,103122.52
2019-03-27T17:14:28.798Z,103138.83
2019-03-27T17:17:13.519Z,103127.20
2019-03-27T17:19:58.560Z,103123.82
2019-03-27T17:22:32.344Z,103147.34
2019-03-27T17:25:20.257Z,103129.48
2019-03-27T17:28:04.361Z,103156.06
2019-03-27T17:30:37.332Z,103153.75
2019-03-27T17:33:21.895Z,103134.41
2019-03-27T17:36:06.913Z,103153.41
2019-03-27T17:38:40.036Z,103161.80
2019-03-27T17:41:23.896Z,103136.76
2019-03-27T17:44:08.462Z,103142.46
2019-03-27T17:46:53.065Z,103171.27
2019-03-27T17:49:37.602Z,103172.44
2019-03-27T17:52:22.252Z,103180.14
2019-03-27T17:55:07.038Z,103150.85
2019-03-27T17:57:40.988Z,103179.03
2019-03-27T18:01:12.111Z,103183.76
2019-03-27T18:03:56.706Z,103185.30
2019-03-27T18:06:41.515Z,103162.86
2019-03-27T18:09:26.408Z,103161.31
2019-03-27T18:12:10.345Z,103187.34
2019-03-27T18:14:54.642Z,103173.67
2019-03-27T18:17:39.108Z,103176.31
2019-03-27T18:20:23.246Z,103203.09
2019-03-27T18:23:07.927Z,103203.92
2019-03-27T18:25:52.419Z,103206.01
2019-03-27T18:28:37.590Z,103187.19
2019-03-27T18:31:10.588Z,103207.22
2019-03-27T18:34:08.657Z,103181.58
2019-03-27T18:36:52.477Z,103201.97
2019-03-27T18:39:37.934Z,103200.63
2019-03-27T18:42:21.760Z,103205.78
2019-03-27T18:45:07.001Z,103189.23
2019-03-27T18:47:50.819Z,103183.45
2019-03-27T18:50:25.334Z,103205.58
2019-03-27T18:53:21.054Z,103182.47
2019-03-27T18:56:05.097Z,103208.38
2019-03-27T18:58:48.970Z,103210.58
2019-03-27T19:01:33.068Z,103192.69
2019-03-27T19:04:06.493Z,103215.30
2019-03-27T19:06:52.414Z,103217.25
2019-03-27T19:09:37.230Z,103217.73
2019-03-27T19:12:22.150Z,103188.94
2019-03-27T19:17:51.511Z,103196.25
2019-03-27T19:20:35.989Z,103221.62
2019-03-27T19:23:20.984Z,103196.63
2019-03-27T19:26:05.830Z,103198.45
2019-03-27T19:28:50.034Z,103188.47
2019-03-27T19:31:34.935Z,103218.55
2019-03-27T19:34:20.958Z,103200.48
2019-03-27T19:37:05.054Z,103218.88
2019-03-27T19:39:49.896Z,103218.56
2019-03-27T19:42:35.721Z,103197.77
2019-03-27T19:45:29.705Z,103223.90
2019-03-27T19:48:15.097Z,103223.64
2019-03-27T19:50:59.141Z,103228.14
2019-03-27T19:53:44.359Z,103203.98
2019-03-27T19:56:28.868Z,103201.05
2019-03-27T19:59:13.019Z,103230.97
2019-03-27T20:01:57.136Z,103199.36
2019-03-27T20:04:41.392Z,103210.44
2019-03-27T20:07:35.298Z,103230.16
2019-03-27T20:10:12.153Z,103211.00
2019-03-27T20:12:57.044Z,103226.51
2019-03-27T20:18:26.142Z,103208.20
2019-03-27T20:21:10.977Z,103226.60
2019-03-27T20:23:55.231Z,103203.04
2019-03-27T20:26:28.626Z,103231.60
2019-03-27T20:29:12.989Z,103234.54
2019-03-27T20:31:57.215Z,103232.91
2019-03-27T20:34:30.957Z,103233.00
2019-03-27T20:37:15.455Z,103210.80
2019-03-27T20:40:00.559Z,103238.00
2019-03-27T20:42:45.697Z,103211.73
2019-03-27T20:45:29.870Z,103237.96
2019-03-27T20:48:14.864Z,103219.05
2019-03-27T20:51:00.432Z,103214.45
2019-03-27T20:53:33.783Z,103240.52
2019-03-27T20:56:07.458Z,103239.88
2019-03-27T20:58:52.342Z,103211.31
2019-03-27T21:01:37.028Z,103212.44
2019-03-27T21:04:10.495Z,103235.32
2019-03-27T21:06:54.770Z,103229.84
2019-03-27T21:09:40.067Z,103231.52
2019-03-27T21:12:24.959Z,103229.89
2019-03-27T21:15:13.880Z,103201.11
2019-03-27T21:17:58.731Z,103199.11
2019-03-27T21:20:43.352Z,103225.22
2019-03-27T21:23:17.017Z,103224.09
2019-03-27T21:26:01.196Z,103229.42
2019-03-27T21:28:45.473Z,103231.56
2019-03-27T21:31:19.643Z,103234.89
2019-03-27T21:34:04.356Z,103241.09
2019-03-27T21:36:37.790Z,103241.08
2019-03-27T21:39:25.637Z,103215.30
2019-03-27T21:42:08.079Z,103230.49
2019-03-27T21:44:52.352Z,103238.67
2019-03-27T21:47:36.066Z,103231.73
2019-03-27T21:50:21.630Z,103224.74
2019-03-27T21:53:05.671Z,103227.28
2019-03-27T21:55:50.498Z,103248.00
2019-03-27T21:58:23.525Z,103247.30
2019-03-27T22:01:08.361Z,103226.44
2019-03-27T22:03:52.626Z,103225.23
2019-03-27T22:06:36.585Z,103243.02
2019-03-27T22:09:21.100Z,103240.54
2019-03-27T22:11:54.843Z,103259.67
2019-03-27T22:14:38.969Z,103234.11
2019-03-27T22:17:23.229Z,103266.36
2019-03-27T22:19:57.913Z,103264.83
2019-03-27T22:23:01.389Z,103272.08
2019-03-27T22:28:20.909Z,103272.10
2019-03-27T22:34:39.210Z,103251.27
2019-03-27T22:37:36.306Z,103275.30
2019-03-27T22:40:20.470Z,103263.31
2019-03-27T22:43:04.887Z,103279.53
2019-03-27T22:45:50.801Z,103261.70
2019-03-27T22:48:36.658Z,103282.34
2019-03-27T22:51:22.310Z,103259.84
2019-03-27T22:54:07.374Z,103276.82
2019-03-27T22:56:52.583Z,103253.66
2019-03-27T22:59:38.148Z,103276.92
2019-03-27T23:02:23.307Z,103279.38
2019-03-27T23:05:08.094Z,103269.77
2019-03-27T23:07:54.040Z,103262.39
2019-03-27T23:10:38.528Z,103257.36
2019-03-27T23:13:25.403Z,103283.55
2019-03-27T23:16:10.776Z,103265.82
2019-03-27T23:18:55.051Z,103284.58
2019-03-27T23:21:39.491Z,103281.27
2019-03-27T23:24:25.632Z,103286.97
2019-03-27T23:27:10.874Z,103278.78
2019-03-27T23:29:54.867Z,103286.53
2019-03-27T23:32:39.305Z,103282.84
2019-03-27T23:35:23.467Z,103269.77
2019-03-27T23:38:12.559Z,103273.52
2019-03-27T23:41:04.214Z,103277.33
2019-03-27T23:43:49.076Z,103295.33
2019-03-27T23:46:32.745Z,103297.22
2019-03-27T23:49:16.442Z,103271.84
2019-03-27T23:52:00.519Z,103274.98
2019-03-27T23:54:44.454Z,103294.77
2019-03-27T23:57:29.178Z,103269.99
